Time;durP1;ratioP1;P1;durP2;ratioP2;P2;SDS_P1;SDS_P2;PMS_P1;PMS_P2;Temp;Humidity;BMP_temperature;BMP_pressure;BME280_temperature;BME280_humidity;BME280_pressure;Samples;Min_cycle;Max_cycle;Signal;HPM_P1;HPM_P2
2023/05/14 00:03:29;;;;;;;1.93;1.20;;;;;;;;;;20889477;28;20229;-83
2023/05/14 00:13:31;;;;;;;1.83;1.10;;;;;;;;;;20882429;28;20271;-83
2023/05/14 00:23:32;;;;;;;1.87;1.00;;;;;;;;;;20898451;28;20610;-83
2023/05/14 00:33:34;;;;;;;1.27;0.80;;;;;;;;;;20906909;28;20328;-82
2023/05/14 00:43:36;;;;;;;1.43;1.00;;;;;;;;;;20912554;28;20248;-83
2023/05/14 00:53:38;;;;;;;3.83;1.23;;;15.80;99.90;;;;;;20902766;28;20226;-83
2023/05/14 01:03:40;;;;;;;1.67;1.30;;;15.80;99.90;;;;;;20938751;28;20233;-84
2023/05/14 01:14:08;;;;;;;1.80;1.20;;;;;;;;;;20992593;28;20283;-82
2023/05/14 01:24:10;;;;;;;1.70;1.10;;;;;;;;;;20947288;28;20225;-82
2023/05/14 01:34:13;;;;;;;1.40;1.10;;;15.80;99.90;;;;;;20985395;28;20237;-82
2023/05/14 01:44:15;;;;;;;2.20;1.50;;;;;;;;;;20982239;28;20594;-82
2023/05/14 01:54:17;;;;;;;2.43;1.10;;;;;;;;;;20945892;28;20279;-82
2023/05/14 02:04:19;;;;;;;1.60;1.00;;;;;;;;;;20963371;28;20221;-82
2023/05/14 02:14:22;;;;;;;2.07;1.03;;;;;;;;;;20959105;28;20217;-82
2023/05/14 02:24:23;;;;;;;1.67;1.10;;;;;;;;;;21017778;28;20228;-81
2023/05/14 02:34:25;;;;;;;1.90;1.10;;;;;;;;;;21066447;28;20228;-82
2023/05/14 02:44:27;;;;;;;1.87;1.30;;;;;;;;;;21057248;28;20770;-82
2023/05/14 02:54:29;;;;;;;1.73;1.40;;;;;;;;;;21052225;28;20579;-82
2023/05/14 03:04:31;;;;;;;1.70;1.40;;;;;;;;;;21052126;28;20232;-82
2023/05/14 03:14:33;;;;;;;2.00;1.23;;;;;;;;;;21074519;28;20244;-83
2023/05/14 03:24:34;;;;;;;1.73;1.10;;;;;;;;;;21038765;28;20702;-82
2023/05/14 03:34:37;;;;;;;1.53;1.30;;;;;;;;;;21050082;28;20783;-83
2023/05/14 03:44:39;;;;;;;2.03;1.40;;;;;;;;;;21084054;28;20247;-83
2023/05/14 03:54:42;;;;;;;2.10;1.33;;;;;;;;;;21033615;28;20252;-82
2023/05/14 04:04:44;;;;;;;2.53;1.30;;;;;;;;;;21089017;28;20224;-81
2023/05/14 04:14:46;;;;;;;1.87;1.30;;;;;;;;;;21073177;28;20286;-82
2023/05/14 04:24:51;;;;;;;1.97;1.30;;;;;;;;;;21040000;28;20232;-82
2023/05/14 04:34:52;;;;;;;2.33;1.30;;;;;;;;;;21062814;28;20236;-82
2023/05/14 04:44:54;;;;;;;4.97;1.70;;;;;;;;;;21050289;28;20258;-82
2023/05/14 04:54:56;;;;;;;1.80;1.30;;;;;;;;;;21102735;28;20305;-82
2023/05/14 05:04:57;;;;;;;3.00;1.37;;;;;;;;;;21003695;28;20741;-84
2023/05/14 05:14:59;;;;;;;1.80;1.20;;;;;;;;;;20935585;28;20281;-83
2023/05/14 05:25:04;;;;;;;2.10;1.30;;;;;;;;;;20913741;28;20225;-83
2023/05/14 05:35:06;;;;;;;1.83;1.30;;;;;;;;;;20908870;28;20217;-84
2023/05/14 05:45:08;;;;;;;1.60;1.17;;;;;;;;;;20928915;28;20263;-83
2023/05/14 05:55:10;;;;;;;2.07;1.50;;;;;;;;;;20986204;28;20282;-83
2023/05/14 06:05:12;;;;;;;1.90;1.40;;;;;;;;;;20988507;28;20226;-83
2023/05/14 06:15:14;;;;;;;1.73;1.33;;;;;;;;;;20897127;28;20295;-83
2023/05/14 06:25:15;;;;;;;3.63;1.93;;;;;;;;;;21056588;28;20216;-83
2023/05/14 06:35:18;;;;;;;1.90;1.40;;;;;;;;;;20903331;28;20229;-81
2023/05/14 06:45:19;;;;;;;2.80;1.50;;;;;;;;;;20935341;28;20229;-82
2023/05/14 06:55:21;;;;;;;1.90;1.30;;;;;;;;;;20973718;28;20292;-81
2023/05/14 07:05:23;;;;;;;2.37;1.87;;;14.80;99.90;;;;;;21015785;28;20275;-81
2023/05/14 07:15:25;;;;;;;1.90;1.50;;;;;;;;;;20972709;28;20229;-81
2023/05/14 07:25:27;;;;;;;1.70;1.30;;;;;;;;;;21026475;28;20984;-82
2023/05/14 07:35:31;;;;;;;1.90;1.50;;;;;;;;;;21085583;28;20242;-82
2023/05/14 07:45:33;;;;;;;1.80;1.37;;;;;;;;;;21031946;28;20523;-81
2023/05/14 07:55:39;;;;;;;3.63;1.40;;;;;;;;;;20901684;28;20226;-80
2023/05/14 08:05:40;;;;;;;1.40;1.10;;;;;;;;;;20965347;28;20251;-82
2023/05/14 08:15:42;;;;;;;2.17;1.40;;;;;;;;;;20908446;28;20789;-82
2023/05/14 08:25:44;;;;;;;2.23;1.47;;;;;;;;;;21049656;28;20217;-84
2023/05/14 08:35:46;;;;;;;1.93;1.23;;;;;;;;;;20985400;28;20274;-82
2023/05/14 08:45:51;;;;;;;2.40;1.60;;;;;;;;;;21064949;28;20204;-81
2023/05/14 08:55:53;;;;;;;1.93;1.37;;;;;;;;;;21051858;28;20689;-83
2023/05/14 09:05:58;;;;;;;1.63;1.13;;;;;;;;;;21058694;28;20196;-81
2023/05/14 09:16:20;;;;;;;1.60;1.20;;;;;;;;;;21037742;28;20236;-81
2023/05/14 09:26:25;;;;;;;2.33;1.37;;;18.60;99.90;;;;;;21084300;28;20220;-81
2023/05/14 09:36:36;;;;;;;1.70;1.20;;;;;;;;;;21055278;28;20228;-81
2023/05/14 09:46:37;;;;;;;1.57;1.10;;;;;;;;;;21088723;28;20560;-83
2023/05/14 09:56:44;;;;;;;1.30;1.10;;;19.00;99.90;;;;;;21102273;28;20307;-80
2023/05/14 10:06:50;;;;;;;2.07;1.30;;;19.40;99.90;;;;;;21097492;28;20271;-81
2023/05/14 10:16:53;;;;;;;1.47;1.07;;;;;;;;;;21084963;28;20224;-82
2023/05/14 10:26:57;;;;;;;4.93;1.30;;;;;;;;;;21085699;28;20623;-81
2023/05/14 10:37:00;;;;;;;1.50;1.10;;;;;;;;;;21076404;28;20787;-82
2023/05/14 10:47:02;;;;;;;2.00;1.30;;;;;;;;;;21063130;28;20595;-82
2023/05/14 10:57:10;;;;;;;2.30;1.30;;;18.20;99.90;;;;;;21071162;28;20313;-82
2023/05/14 11:07:12;;;;;;;1.20;0.90;;;;;;;;;;21057927;28;20575;-82
2023/05/14 11:17:14;;;;;;;1.83;1.00;;;18.20;99.90;;;;;;21054006;28;20688;-82
2023/05/14 11:27:17;;;;;;;1.13;0.80;;;18.40;99.90;;;;;;21083722;28;20666;-83
2023/05/14 11:37:20;;;;;;;1.23;0.73;;;;;;;;;;21083638;28;20659;-82
2023/05/14 11:47:21;;;;;;;1.70;1.20;;;18.70;99.90;;;;;;21056475;28;20282;-82
2023/05/14 11:57:23;;;;;;;1.47;1.10;;;;;;;;;;21120060;28;20228;-83
2023/05/14 12:07:29;;;;;;;1.23;0.77;;;;;;;;;;21082198;28;20228;-82
2023/05/14 12:17:32;;;;;;;1.00;0.70;;;;;;;;;;21083197;28;20242;-82
2023/05/14 12:27:36;;;;;;;1.67;0.70;;;;;;;;;;21107439;28;20196;-81
2023/05/14 12:37:38;;;;;;;1.73;1.00;;;;;;;;;;21063958;28;20229;-82
2023/05/14 12:47:40;;;;;;;1.03;0.80;;;;;;;;;;21083190;28;20248;-82
2023/05/14 12:57:42;;;;;;;1.10;0.80;;;;;;;;;;21087627;28;20226;-81
2023/05/14 13:07:44;;;;;;;2.27;0.67;;;;;;;;;;21012488;28;20253;-81
2023/05/14 13:17:45;;;;;;;0.90;0.70;;;;;;;;;;20954770;28;20273;-81
2023/05/14 13:27:49;;;;;;;1.37;0.90;;;;;;;;;;20972299;28;20218;-82
2023/05/14 13:37:51;;;;;;;1.57;0.97;;;;;;;;;;20975842;28;20239;-82
2023/05/14 13:47:55;;;;;;;1.17;0.73;;;;;;;;;;20948942;28;20800;-82
2023/05/14 13:57:58;;;;;;;0.97;0.77;;;;;;;;;;20994010;28;20633;-82
2023/05/14 14:08:00;;;;;;;0.90;0.63;;;;;;;;;;21043990;28;20226;-80
2023/05/14 14:18:02;;;;;;;1.60;0.90;;;;;;;;;;20984440;28;20638;-80
2023/05/14 14:28:04;;;;;;;1.30;0.80;;;;;;;;;;20977712;28;20215;-81
2023/05/14 14:38:07;;;;;;;0.97;0.67;;;;;;;;;;21021847;28;20473;-80
2023/05/14 14:48:41;;;;;;;1.20;0.70;;;22.00;99.90;;;;;;20892398;28;20274;-82
2023/05/14 14:58:44;;;;;;;1.40;0.70;;;;;;;;;;20915084;28;20878;-81
2023/05/14 15:08:45;;;;;;;0.90;0.60;;;;;;;;;;20995527;28;20273;-80
2023/05/14 15:18:47;;;;;;;0.68;0.60;;;;;;;;;;21010556;28;20235;-80
2023/05/14 15:28:49;;;;;;;1.43;0.80;;;;;;;;;;21009556;28;20254;-80
2023/05/14 15:38:51;;;;;;;1.17;0.60;;;;;;;;;;20953959;28;20706;-80
2023/05/14 15:48:53;;;;;;;1.00;0.70;;;;;;;;;;20921945;28;20208;-81
2023/05/14 15:59:20;;;;;;;0.80;0.60;;;;;;;;;;20972628;28;20227;-83
2023/05/14 16:09:26;;;;;;;0.70;0.60;;;;;;;;;;20989728;28;20242;-83
2023/05/14 16:19:30;;;;;;;1.10;0.80;;;;;;;;;;20968327;28;20706;-84
2023/05/14 16:29:32;;;;;;;0.80;0.60;;;;;;;;;;20976587;28;20687;-85
2023/05/14 16:39:34;;;;;;;0.77;0.60;;;;;;;;;;20952422;28;20231;-84
2023/05/14 16:49:35;;;;;;;0.90;0.60;;;;;;;;;;20978338;28;20245;-83
2023/05/14 16:59:37;;;;;;;0.80;0.50;;;;;;;;;;21036134;28;20233;-81
2023/05/14 17:09:39;;;;;;;0.90;0.70;;;;;;;;;;20986145;28;20276;-80
2023/05/14 17:19:41;;;;;;;1.10;0.60;;;;;;;;;;20986065;28;20265;-80
2023/05/14 17:29:43;;;;;;;1.23;0.67;;;;;;;;;;20985629;28;20226;-81
2023/05/14 17:39:45;;;;;;;0.67;0.50;;;;;;;;;;20963622;28;20223;-80
2023/05/14 17:49:47;;;;;;;0.67;0.57;;;;;;;;;;21019956;28;20227;-81
2023/05/14 17:59:48;;;;;;;1.07;0.63;;;;;;;;;;20933227;28;20240;-81
2023/05/14 18:09:50;;;;;;;1.33;0.70;;;;;;;;;;21020253;28;20273;-80
2023/05/14 18:19:52;;;;;;;1.10;0.60;;;;;;;;;;21086985;28;20725;-80
2023/05/14 18:29:55;;;;;;;0.70;0.57;;;;;;;;;;21017518;28;20221;-81
2023/05/14 18:39:57;;;;;;;1.13;0.63;;;;;;;;;;21062703;28;20727;-82
2023/05/14 18:50:00;;;;;;;0.87;0.63;;;;;;;;;;21046020;28;20222;-83
2023/05/14 19:00:02;;;;;;;0.80;0.50;;;;;;;;;;21046300;28;20232;-83
2023/05/14 19:10:06;;;;;;;0.87;0.60;;;;;;;;;;21027611;28;20251;-81
2023/05/14 19:20:08;;;;;;;0.60;0.50;;;;;;;;;;21071020;28;20231;-82
2023/05/14 19:30:10;;;;;;;0.90;0.50;;;;;;;;;;21062250;28;20285;-83
2023/05/14 19:40:12;;;;;;;1.30;0.50;;;;;;;;;;21039292;28;20592;-82
2023/05/14 19:50:14;;;;;;;0.67;0.50;;;;;;;;;;21078326;28;20570;-83
2023/05/14 20:00:16;;;;;;;0.47;0.40;;;;;;;;;;21073593;28;20284;-83
2023/05/14 20:10:18;;;;;;;0.57;0.47;;;;;;;;;;21060909;28;20292;-82
2023/05/14 20:20:19;;;;;;;0.67;0.43;;;;;;;;;;21077591;28;20234;-82
2023/05/14 20:30:21;;;;;;;0.60;0.50;;;;;;;;;;21024498;28;20222;-83
2023/05/14 20:40:24;;;;;;;0.80;0.40;;;19.10;99.90;;;;;;21057264;28;20707;-83
2023/05/14 20:50:26;;;;;;;0.60;0.50;;;;;;;;;;21024992;28;20213;-83
2023/05/14 21:00:28;;;;;;;0.60;0.40;;;;;;;;;;21050272;28;20229;-82
2023/05/14 21:10:33;;;;;;;0.80;0.40;;;;;;;;;;21040322;28;20218;-83
2023/05/14 21:20:34;;;;;;;0.60;0.40;;;;;;;;;;21039668;28;20225;-83
2023/05/14 21:30:37;;;;;;;0.77;0.40;;;;;;;;;;21073558;28;20274;-83
2023/05/14 21:40:39;;;;;;;0.80;0.60;;;;;;;;;;21053337;28;20262;-82
2023/05/14 21:50:40;;;;;;;0.60;0.50;;;;;;;;;;21055542;28;20224;-83
2023/05/14 22:00:42;;;;;;;0.63;0.40;;;;;;;;;;21070851;28;20224;-83
2023/05/14 22:10:44;;;;;;;0.93;0.47;;;;;;;;;;21089434;28;20266;-84
2023/05/14 22:20:46;;;;;;;0.63;0.40;;;;;;;;;;21035979;28;20232;-83
2023/05/14 22:30:47;;;;;;;0.90;0.60;;;;;;;;;;21074886;28;20218;-84
2023/05/14 22:40:52;;;;;;;1.63;0.60;;;;;;;;;;21058604;28;20228;-83
2023/05/14 22:50:54;;;;;;;0.67;0.50;;;;;;;;;;21034321;28;20262;-83
2023/05/14 23:00:56;;;;;;;3.13;0.80;;;;;;;;;;21035433;28;20290;-83
2023/05/14 23:10:57;;;;;;;2.30;0.70;;;;;;;;;;21040497;28;20221;-83
2023/05/14 23:20:59;;;;;;;1.90;0.60;;;;;;;;;;21103574;28;20273;-83
2023/05/14 23:31:01;;;;;;;0.80;0.53;;;;;;;;;;21051212;28;20265;-84
2023/05/14 23:41:03;;;;;;;0.93;0.50;;;;;;;;;;21045650;28;20762;-83
2023/05/14 23:51:04;;;;;;;0.90;0.60;;;;;;;;;;21061608;28;20228;-83
